createdAt,value
2023-05-21T00:01:45.797Z,5.00
2023-05-21T00:04:13.213Z,5.18
2023-05-21T00:06:39.949Z,6.07
2023-05-21T00:09:07.140Z,5.63
2023-05-21T00:11:33.873Z,5.05
2023-05-21T00:14:00.658Z,5.88
2023-05-21T00:16:27.426Z,5.30
2023-05-21T00:18:54.755Z,5.30
2023-05-21T00:21:26.374Z,5.10
2023-05-21T00:23:57.124Z,5.07
2023-05-21T00:26:26.928Z,4.65
2023-05-21T00:28:54.007Z,4.97
2023-05-21T00:31:21.047Z,5.15
2023-05-21T00:33:47.803Z,4.75
2023-05-21T00:36:14.969Z,4.80
2023-05-21T00:38:43.893Z,4.88
2023-05-21T00:41:10.929Z,4.30
2023-05-21T00:43:40.385Z,4.32
2023-05-21T00:46:12.162Z,4.70
2023-05-21T00:48:39.838Z,4.47
2023-05-21T00:51:06.973Z,3.92
2023-05-21T00:53:35.719Z,4.65
2023-05-21T00:56:03.411Z,4.22
2023-05-21T00:58:31.249Z,4.38
2023-05-21T01:00:58.942Z,4.40
2023-05-21T01:03:26.419Z,4.85
2023-05-21T01:05:53.459Z,4.88
2023-05-21T01:08:21.863Z,4.05
2023-05-21T01:10:49.565Z,4.10
2023-05-21T01:13:17.851Z,4.18
2023-05-21T01:15:45.711Z,5.55
2023-05-21T01:18:14.461Z,4.22
2023-05-21T01:20:42.619Z,4.72
2023-05-21T01:23:09.610Z,4.57
2023-05-21T01:25:36.565Z,3.80
2023-05-21T01:28:03.492Z,4.28
2023-05-21T01:30:30.463Z,5.50
2023-05-21T01:33:07.844Z,4.00
2023-05-21T01:35:39.163Z,4.40
2023-05-21T01:38:18.022Z,3.92
2023-05-21T01:40:52.141Z,3.97
2023-05-21T01:43:20.175Z,3.37
2023-05-21T01:45:48.167Z,4.70
2023-05-21T01:48:17.501Z,4.50
2023-05-21T01:50:45.588Z,4.90
2023-05-21T01:53:12.404Z,5.15
2023-05-21T01:55:41.910Z,4.70
2023-05-21T01:58:08.801Z,4.40
2023-05-21T02:00:35.797Z,3.95
2023-05-21T02:03:02.655Z,3.90
2023-05-21T02:05:29.536Z,4.50
2023-05-21T02:07:57.165Z,4.43
2023-05-21T02:10:23.942Z,4.53
2023-05-21T02:12:50.975Z,6.60
2023-05-21T02:15:19.273Z,4.18
2023-05-21T02:17:46.941Z,4.22
2023-05-21T02:20:14.550Z,5.10
2023-05-21T02:22:43.563Z,4.65
2023-05-21T02:25:14.813Z,5.13
2023-05-21T02:27:42.891Z,3.72
2023-05-21T02:30:12.135Z,4.38
2023-05-21T02:32:42.711Z,4.40
2023-05-21T02:35:11.557Z,4.60
2023-05-21T02:37:40.735Z,4.25
2023-05-21T02:40:09.834Z,4.45
2023-05-21T02:42:39.742Z,4.28
2023-05-21T02:45:08.505Z,4.25
2023-05-21T02:47:35.484Z,4.55
2023-05-21T02:50:03.135Z,3.75
2023-05-21T02:52:29.889Z,4.07
2023-05-21T02:54:56.638Z,4.80
2023-05-21T02:57:23.307Z,5.20
2023-05-21T02:59:49.993Z,6.40
2023-05-21T03:02:17.408Z,6.68
2023-05-21T03:04:46.672Z,6.63
2023-05-21T03:07:14.689Z,7.80
2023-05-21T03:09:42.537Z,6.95
2023-05-21T03:12:09.984Z,6.10
2023-05-21T03:14:37.056Z,5.20
2023-05-21T03:17:06.226Z,5.05
2023-05-21T03:19:36.761Z,5.20
2023-05-21T03:22:04.736Z,5.13
2023-05-21T03:24:33.127Z,5.68
2023-05-21T03:27:01.592Z,5.22
2023-05-21T03:29:28.716Z,5.63
2023-05-21T03:32:00.840Z,5.93
2023-05-21T03:34:27.607Z,5.72
2023-05-21T03:36:54.311Z,4.90
2023-05-21T03:39:21.080Z,5.60
2023-05-21T03:41:47.745Z,6.05
2023-05-21T03:44:14.408Z,6.05
2023-05-21T03:46:41.400Z,5.15
2023-05-21T03:49:08.294Z,6.00
2023-05-21T03:51:35.020Z,4.25
2023-05-21T03:54:02.366Z,5.30
2023-05-21T03:56:29.065Z,4.47
2023-05-21T03:58:55.823Z,5.28
2023-05-21T04:01:22.877Z,4.72
2023-05-21T04:03:49.799Z,4.65
2023-05-21T04:06:17.017Z,4.85
2023-05-21T04:08:44.672Z,4.40
2023-05-21T04:11:11.376Z,3.95
2023-05-21T04:13:38.859Z,4.00
2023-05-21T04:16:09.182Z,4.15
2023-05-21T04:18:36.049Z,4.28
2023-05-21T04:21:02.758Z,4.22
2023-05-21T04:23:29.536Z,3.92
2023-05-21T04:25:56.257Z,4.65
2023-05-21T04:28:24.285Z,4.90
2023-05-21T04:30:51.239Z,4.35
2023-05-21T04:33:18.589Z,4.32
2023-05-21T04:35:51.735Z,4.78
2023-05-21T04:38:19.713Z,4.90
2023-05-21T04:40:52.873Z,4.20
2023-05-21T04:43:26.261Z,6.82
2023-05-21T04:45:55.194Z,5.22
2023-05-21T04:48:26.929Z,5.18
2023-05-21T04:50:54.192Z,5.25
2023-05-21T04:53:21.040Z,4.28
2023-05-21T04:55:48.100Z,4.32
2023-05-21T04:58:18.014Z,3.90
2023-05-21T05:00:47.024Z,4.03
2023-05-21T05:03:14.548Z,4.90
2023-05-21T05:05:41.988Z,4.28
2023-05-21T05:08:08.759Z,4.78
2023-05-21T05:10:36.021Z,4.45
2023-05-21T05:13:02.785Z,4.85
2023-05-21T05:15:30.058Z,6.30
2023-05-21T05:17:57.267Z,5.25
2023-05-21T05:20:24.237Z,4.25
2023-05-21T05:22:51.417Z,5.90
2023-05-21T05:25:18.210Z,5.28
2023-05-21T05:27:45.070Z,5.40
2023-05-21T05:30:12.232Z,4.68
2023-05-21T05:32:39.010Z,5.00
2023-05-21T05:35:06.568Z,5.53
2023-05-21T05:37:33.825Z,7.00
2023-05-21T05:40:00.699Z,5.10
2023-05-21T05:42:27.399Z,4.40
2023-05-21T05:44:54.236Z,4.00
2023-05-21T05:47:21.933Z,4.78
2023-05-21T05:49:50.475Z,4.22
2023-05-21T05:52:17.363Z,4.90
2023-05-21T05:54:44.071Z,5.28
2023-05-21T05:57:12.123Z,5.47
2023-05-21T05:59:38.833Z,5.10
2023-05-21T06:02:05.536Z,3.65
2023-05-21T06:04:32.505Z,4.88
2023-05-21T06:07:00.006Z,4.43
2023-05-21T06:09:26.882Z,4.75
2023-05-21T06:11:53.601Z,4.13
2023-05-21T06:14:21.029Z,3.83
2023-05-21T06:16:47.904Z,4.35
2023-05-21T06:19:14.729Z,4.47
2023-05-21T06:21:41.538Z,4.53
2023-05-21T06:24:08.255Z,5.05
2023-05-21T06:26:34.993Z,4.20
2023-05-21T06:29:02.462Z,5.72
2023-05-21T06:31:29.204Z,5.63
2023-05-21T06:33:56.394Z,5.47
2023-05-21T06:36:23.216Z,5.35
2023-05-21T06:38:49.859Z,5.28
2023-05-21T06:41:16.581Z,6.20
2023-05-21T06:43:43.278Z,5.82
2023-05-21T06:46:10.103Z,5.15
2023-05-21T06:48:37.027Z,5.40
2023-05-21T06:51:03.912Z,6.57
2023-05-21T06:53:30.638Z,6.60
2023-05-21T06:55:57.338Z,6.55
2023-05-21T06:58:24.213Z,23.67
2023-05-21T07:00:51.078Z,11.73
2023-05-21T07:03:18.025Z,7.55
2023-05-21T07:05:45.395Z,6.68
2023-05-21T07:08:12.387Z,5.85
2023-05-21T07:10:39.189Z,5.70
2023-05-21T07:13:06.069Z,10.18
2023-05-21T07:15:32.801Z,13.15
2023-05-21T07:17:59.649Z,6.70
2023-05-21T07:20:26.379Z,10.15
2023-05-21T07:22:53.072Z,5.18
2023-05-21T07:25:19.928Z,5.43
2023-05-21T07:27:46.990Z,36.15
2023-05-21T07:30:14.904Z,7.68
2023-05-21T07:32:42.204Z,11.90
2023-05-21T07:35:09.349Z,5.97
2023-05-21T07:37:36.271Z,6.35
2023-05-21T07:40:03.084Z,6.85
2023-05-21T07:42:30.713Z,6.50
2023-05-21T07:44:57.560Z,10.20
2023-05-21T07:47:24.290Z,5.85
2023-05-21T07:49:51.063Z,5.35
2023-05-21T07:52:17.874Z,4.97
2023-05-21T07:54:44.530Z,6.93
2023-05-21T07:57:11.403Z,6.15
2023-05-21T07:59:38.185Z,6.47
2023-05-21T08:02:05.098Z,6.18
2023-05-21T08:04:32.020Z,6.97
2023-05-21T08:06:58.933Z,8.55
2023-05-21T08:09:26.181Z,6.30
2023-05-21T08:11:53.086Z,5.45
2023-05-21T08:14:19.759Z,5.53
2023-05-21T08:16:46.829Z,8.73
2023-05-21T08:19:13.664Z,8.90
2023-05-21T08:21:40.508Z,16.20
2023-05-21T08:24:07.671Z,10.23
2023-05-21T08:26:34.431Z,6.60
2023-05-21T08:29:01.187Z,8.90
2023-05-21T08:31:28.292Z,9.32
2023-05-21T08:33:56.785Z,8.32
2023-05-21T08:36:23.821Z,6.90
2023-05-21T08:38:50.863Z,5.35
2023-05-21T08:41:22.144Z,7.57
2023-05-21T08:43:56.825Z,14.65
2023-05-21T08:46:25.153Z,10.52
2023-05-21T08:48:56.038Z,14.73
2023-05-21T08:51:22.814Z,6.00
2023-05-21T08:53:50.688Z,7.25
2023-05-21T08:56:18.369Z,7.10
2023-05-21T08:58:49.134Z,6.47
2023-05-21T09:01:19.266Z,7.03
2023-05-21T09:03:47.395Z,7.72
2023-05-21T09:06:14.284Z,9.20
2023-05-21T09:08:46.124Z,7.03
2023-05-21T09:11:14.437Z,5.70
2023-05-21T09:13:43.626Z,6.30
2023-05-21T09:16:10.984Z,10.57
2023-05-21T09:18:37.797Z,6.95
2023-05-21T09:21:27.876Z,25.15
2023-05-21T09:23:57.825Z,13.85
2023-05-21T09:26:25.766Z,9.93
2023-05-21T09:28:56.765Z,8.68
2023-05-21T09:31:24.418Z,7.65
2023-05-21T09:33:51.770Z,53.97
2023-05-21T09:36:22.780Z,22.50
2023-05-21T09:38:51.906Z,31.75
2023-05-21T09:41:22.179Z,9.02
2023-05-21T09:43:49.344Z,5.18
2023-05-21T09:46:17.165Z,5.38
2023-05-21T09:48:44.687Z,8.48
2023-05-21T09:51:11.527Z,7.55
2023-05-21T09:53:59.661Z,6.75
2023-05-21T09:56:30.938Z,8.00
2023-05-21T09:59:04.343Z,6.05
2023-05-21T10:01:33.990Z,6.20
2023-05-21T10:04:02.811Z,6.90
2023-05-21T10:06:31.362Z,6.78
2023-05-21T10:09:04.639Z,8.50
2023-05-21T10:11:32.650Z,3.58
2023-05-21T10:14:07.722Z,4.72
2023-05-21T10:16:41.426Z,5.00
2023-05-21T10:19:11.816Z,4.55
2023-05-21T10:21:40.013Z,4.80
2023-05-21T10:24:09.537Z,4.47
2023-05-21T10:26:36.844Z,3.75
2023-05-21T10:29:03.667Z,4.25
2023-05-21T10:31:31.831Z,4.85
2023-05-21T10:33:59.589Z,5.50
2023-05-21T10:36:31.809Z,6.45
2023-05-21T10:39:00.757Z,4.72
2023-05-21T10:41:28.289Z,6.35
2023-05-21T10:44:11.226Z,7.72
2023-05-21T10:47:29.286Z,7.00
2023-05-21T10:50:26.913Z,9.32
2023-05-21T10:53:13.749Z,7.78
2023-05-21T10:55:58.839Z,8.35
2023-05-21T10:58:40.649Z,14.15
2023-05-21T11:01:08.028Z,7.68
2023-05-21T11:03:37.733Z,5.20
2023-05-21T11:06:08.662Z,5.45
2023-05-21T11:08:37.397Z,14.60
2023-05-21T11:11:05.151Z,7.32
2023-05-21T11:13:52.165Z,9.32
2023-05-21T11:16:21.236Z,5.50
2023-05-21T11:18:48.014Z,5.65
2023-05-21T11:21:21.137Z,7.60
2023-05-21T11:23:50.629Z,6.30
2023-05-21T11:26:22.745Z,5.57
2023-05-21T11:29:04.441Z,6.68
2023-05-21T11:31:39.452Z,7.47
2023-05-21T11:34:28.285Z,5.40
2023-05-21T11:37:29.441Z,6.72
2023-05-21T11:40:16.310Z,5.18
2023-05-21T11:42:44.223Z,6.80
2023-05-21T11:45:11.466Z,4.38
2023-05-21T11:47:40.274Z,5.75
2023-05-21T11:50:14.673Z,5.43
2023-05-21T11:52:42.320Z,4.88
2023-05-21T11:55:09.849Z,4.72
2023-05-21T11:57:38.018Z,6.55
2023-05-21T12:00:13.981Z,6.40
2023-05-21T12:02:48.062Z,8.35
2023-05-21T12:05:16.046Z,17.63
2023-05-21T12:07:43.137Z,8.02
2023-05-21T12:10:10.809Z,16.77
2023-05-21T12:12:53.971Z,7.38
2023-05-21T12:15:24.438Z,9.65
2023-05-21T12:17:53.106Z,10.55
2023-05-21T12:20:20.921Z,8.65
2023-05-21T12:22:50.148Z,7.90
2023-05-21T12:25:21.209Z,4.80
2023-05-21T12:27:52.831Z,6.40
2023-05-21T12:30:20.128Z,5.90
2023-05-21T12:32:46.953Z,10.02
2023-05-21T12:35:24.520Z,10.02
2023-05-21T12:37:52.126Z,8.82
2023-05-21T12:40:22.281Z,4.47
2023-05-21T12:42:49.951Z,6.13
2023-05-21T12:45:18.805Z,15.82
2023-05-21T12:47:50.348Z,11.20
2023-05-21T12:50:21.229Z,13.60
2023-05-21T12:52:48.284Z,15.63
2023-05-21T12:55:15.450Z,13.20
2023-05-21T12:57:43.955Z,13.85
2023-05-21T13:00:11.483Z,15.93
2023-05-21T13:02:44.170Z,12.88
2023-05-21T13:05:19.606Z,6.13
2023-05-21T13:07:47.648Z,11.43
2023-05-21T13:10:16.128Z,12.45
2023-05-21T13:12:44.336Z,18.73
2023-05-21T13:15:11.905Z,14.88
2023-05-21T13:17:38.787Z,9.18
2023-05-21T13:20:14.338Z,30.30
2023-05-21T13:22:43.552Z,13.80
2023-05-21T13:25:11.699Z,18.75
2023-05-21T13:27:39.703Z,10.60
2023-05-21T13:30:07.404Z,6.65
2023-05-21T13:32:34.681Z,5.20
2023-05-21T13:35:05.340Z,9.90
2023-05-21T13:37:32.550Z,11.05
2023-05-21T13:39:59.257Z,7.85
2023-05-21T13:42:26.133Z,5.28
2023-05-21T13:44:53.151Z,7.40
2023-05-21T13:47:20.047Z,18.50
2023-05-21T13:49:46.897Z,19.23
2023-05-21T13:52:13.575Z,16.30
2023-05-21T13:54:40.695Z,18.67
2023-05-21T13:57:07.585Z,14.57
2023-05-21T13:59:34.372Z,8.05
2023-05-21T14:02:01.294Z,13.77
2023-05-21T14:04:28.287Z,11.05
2023-05-21T14:06:55.247Z,11.82
2023-05-21T14:09:23.445Z,11.68
2023-05-21T14:11:50.243Z,22.38
2023-05-21T14:14:19.139Z,7.38
2023-05-21T14:16:47.282Z,12.13
2023-05-21T14:19:17.421Z,11.75
2023-05-21T14:21:44.453Z,15.90
2023-05-21T14:24:11.208Z,19.10
2023-05-21T14:26:41.010Z,27.75
2023-05-21T14:29:08.019Z,22.60
2023-05-21T14:31:34.825Z,15.80
2023-05-21T14:34:02.959Z,13.93
2023-05-21T14:36:30.083Z,13.52
2023-05-21T14:38:56.972Z,8.35
2023-05-21T14:41:27.907Z,8.60
2023-05-21T14:43:54.725Z,8.13
2023-05-21T14:46:21.865Z,12.60
2023-05-21T14:48:48.766Z,9.90
2023-05-21T14:51:15.733Z,9.23
2023-05-21T14:53:42.420Z,10.88
2023-05-21T14:56:09.235Z,10.80
2023-05-21T14:58:35.920Z,8.13
2023-05-21T15:01:04.380Z,10.23
2023-05-21T15:03:31.354Z,13.32
2023-05-21T15:05:58.689Z,9.75
2023-05-21T15:08:25.868Z,9.93
2023-05-21T15:10:52.971Z,10.68
2023-05-21T15:13:21.422Z,11.95
2023-05-21T15:15:48.733Z,13.55
2023-05-21T15:18:15.937Z,18.80
2023-05-21T15:20:42.673Z,18.10
2023-05-21T15:23:16.883Z,93.47
2023-05-21T15:25:44.763Z,39.88
2023-05-21T15:28:14.596Z,34.33
2023-05-21T15:30:41.371Z,20.33
2023-05-21T15:33:08.401Z,21.48
2023-05-21T15:35:36.372Z,25.60
2023-05-21T15:38:03.583Z,19.90
2023-05-21T15:40:30.299Z,17.30
2023-05-21T15:42:57.093Z,20.20
2023-05-21T15:45:24.876Z,11.40
2023-05-21T15:47:51.735Z,30.67
2023-05-21T15:50:18.566Z,50.13
2023-05-21T15:52:45.317Z,14.93
2023-05-21T15:55:12.096Z,14.40
2023-05-21T15:57:38.786Z,17.70
2023-05-21T16:00:06.410Z,15.30
2023-05-21T16:02:33.310Z,15.93
2023-05-21T16:04:59.966Z,24.50
2023-05-21T16:07:26.664Z,15.30
2023-05-21T16:09:53.445Z,13.82
2023-05-21T16:12:20.810Z,13.93
2023-05-21T16:14:50.182Z,15.10
2023-05-21T16:17:18.081Z,19.50
2023-05-21T16:19:44.746Z,16.52
2023-05-21T16:22:11.422Z,13.73
2023-05-21T16:24:38.376Z,14.85
2023-05-21T16:27:05.288Z,14.80
2023-05-21T16:29:32.018Z,14.15
2023-05-21T16:31:58.773Z,15.40
2023-05-21T16:34:25.770Z,15.75
2023-05-21T16:36:52.499Z,12.70
2023-05-21T16:39:19.201Z,21.63
2023-05-21T16:41:46.178Z,19.08
2023-05-21T16:44:13.001Z,14.05
2023-05-21T16:46:39.794Z,12.73
2023-05-21T16:49:06.660Z,16.13
2023-05-21T16:51:33.334Z,14.70
2023-05-21T16:54:00.712Z,15.50
2023-05-21T16:56:27.657Z,9.15
2023-05-21T16:58:54.441Z,10.57
2023-05-21T17:01:21.232Z,12.00
2023-05-21T17:03:48.060Z,13.10
2023-05-21T17:06:15.069Z,10.35
2023-05-21T17:08:42.788Z,9.80
2023-05-21T17:11:09.846Z,9.75
2023-05-21T17:13:36.583Z,10.02
2023-05-21T17:16:03.432Z,14.70
2023-05-21T17:18:31.286Z,10.02
2023-05-21T17:20:58.946Z,24.35
2023-05-21T17:23:26.927Z,14.30
2023-05-21T17:25:53.627Z,12.73
2023-05-21T17:28:20.365Z,13.88
2023-05-21T17:30:49.659Z,12.55
2023-05-21T17:33:16.625Z,13.88
2023-05-21T17:35:43.570Z,14.25
2023-05-21T17:38:10.460Z,17.92
2023-05-21T17:40:37.339Z,21.55
2023-05-21T17:43:05.097Z,27.65
2023-05-21T17:45:32.165Z,29.80
2023-05-21T17:48:00.386Z,37.10
2023-05-21T17:50:27.508Z,39.17
2023-05-21T17:52:54.244Z,38.38
2023-05-21T17:55:21.002Z,30.05
2023-05-21T17:57:47.774Z,35.35
2023-05-21T18:00:14.739Z,32.00
2023-05-21T18:02:41.562Z,19.63
2023-05-21T18:05:08.518Z,18.75
2023-05-21T18:07:37.866Z,18.88
2023-05-21T18:10:05.036Z,16.90
2023-05-21T18:12:31.757Z,25.23
2023-05-21T18:14:58.532Z,24.20
2023-05-21T18:17:25.286Z,22.02
2023-05-21T18:19:51.997Z,31.67
2023-05-21T18:22:18.703Z,26.35
2023-05-21T18:24:46.278Z,28.02
2023-05-21T18:27:13.637Z,21.23
2023-05-21T18:29:40.502Z,23.60
2023-05-21T18:32:07.792Z,11.38
2023-05-21T18:34:34.627Z,24.85
2023-05-21T18:37:01.391Z,24.98
2023-05-21T18:39:29.469Z,21.58
2023-05-21T18:42:11.510Z,28.90
2023-05-21T18:44:39.439Z,24.08
2023-05-21T18:47:07.691Z,28.13
2023-05-21T18:49:35.935Z,33.08
2023-05-21T18:52:04.031Z,29.83
2023-05-21T18:54:30.860Z,33.13
2023-05-21T18:57:00.226Z,37.70
2023-05-21T18:59:29.586Z,39.47
2023-05-21T19:01:56.329Z,41.63
2023-05-21T19:04:23.094Z,41.67
2023-05-21T19:06:49.964Z,39.70
2023-05-21T19:09:16.992Z,37.35
2023-05-21T19:11:44.082Z,38.00
2023-05-21T19:14:10.968Z,42.75
2023-05-21T19:16:37.704Z,46.60
2023-05-21T19:19:04.530Z,36.53
2023-05-21T19:21:31.970Z,32.00
2023-05-21T19:23:58.765Z,40.03
2023-05-21T19:26:25.636Z,45.72
2023-05-21T19:28:55.544Z,41.75
2023-05-21T19:31:23.331Z,39.45
2023-05-21T19:33:50.649Z,41.05
2023-05-21T19:36:18.776Z,38.92
2023-05-21T19:38:48.161Z,45.92
2023-05-21T19:41:19.157Z,45.80
2023-05-21T19:43:46.236Z,33.45
2023-05-21T19:46:15.227Z,27.38
2023-05-21T19:48:44.105Z,29.58
2023-05-21T19:51:11.072Z,31.90
2023-05-21T19:53:38.070Z,31.30
2023-05-21T19:56:04.829Z,33.05
2023-05-21T19:58:31.602Z,35.22
2023-05-21T20:00:59.327Z,35.38
2023-05-21T20:03:26.993Z,37.88
2023-05-21T20:05:54.577Z,38.97
2023-05-21T20:08:21.631Z,38.25
2023-05-21T20:10:51.408Z,32.40
2023-05-21T20:13:18.595Z,32.95
2023-05-21T20:15:45.627Z,32.03
2023-05-21T20:18:12.993Z,33.03
2023-05-21T20:20:41.435Z,36.00
2023-05-21T20:23:08.627Z,34.65
2023-05-21T20:25:35.428Z,35.20
2023-05-21T20:28:02.721Z,39.72
2023-05-21T20:30:33.602Z,35.00
2023-05-21T20:33:01.903Z,35.65
2023-05-21T20:35:28.966Z,31.35
2023-05-21T20:37:55.822Z,36.90
2023-05-21T20:40:22.559Z,95.30
2023-05-21T20:42:53.091Z,126.10
2023-05-21T20:45:22.054Z,85.20
2023-05-21T20:47:50.121Z,46.70
2023-05-21T20:50:17.829Z,82.78
2023-05-21T20:52:47.071Z,53.88
2023-05-21T20:55:14.785Z,34.70
2023-05-21T20:57:42.204Z,40.42
2023-05-21T21:00:12.863Z,60.22
2023-05-21T21:02:39.805Z,52.95
2023-05-21T21:05:10.298Z,50.83
2023-05-21T21:07:37.934Z,27.30
2023-05-21T21:10:05.383Z,18.77
2023-05-21T21:12:32.120Z,15.70
2023-05-21T21:14:58.799Z,11.45
2023-05-21T21:17:28.555Z,11.50
2023-05-21T21:19:55.488Z,14.95
2023-05-21T21:22:22.205Z,14.23
2023-05-21T21:24:49.073Z,26.63
2023-05-21T21:27:15.957Z,24.45
2023-05-21T21:29:42.705Z,25.02
2023-05-21T21:32:09.479Z,20.80
2023-05-21T21:34:36.174Z,20.92
2023-05-21T21:37:03.018Z,20.77
2023-05-21T21:39:29.749Z,20.52
2023-05-21T21:41:56.430Z,21.70
2023-05-21T21:44:23.107Z,23.60
2023-05-21T21:46:50.864Z,25.92
2023-05-21T21:49:17.657Z,30.85
2023-05-21T21:51:44.701Z,32.00
2023-05-21T21:54:11.798Z,30.20
2023-05-21T21:56:38.530Z,27.70
2023-05-21T21:59:05.413Z,47.30
2023-05-21T22:01:33.644Z,42.45
2023-05-21T22:04:00.562Z,38.65
2023-05-21T22:06:27.825Z,33.88
2023-05-21T22:08:54.942Z,31.25
2023-05-21T22:11:22.067Z,29.30
2023-05-21T22:13:49.114Z,30.15
2023-05-21T22:16:15.996Z,22.27
2023-05-21T22:18:42.758Z,24.40
2023-05-21T22:21:10.411Z,21.85
2023-05-21T22:23:38.116Z,20.77
2023-05-21T22:26:04.934Z,22.33
2023-05-21T22:28:31.699Z,21.95
2023-05-21T22:30:59.159Z,21.85
2023-05-21T22:33:26.921Z,23.98
2023-05-21T22:35:54.525Z,18.00
2023-05-21T22:38:21.646Z,17.25
2023-05-21T22:40:48.482Z,16.10
2023-05-21T22:43:15.368Z,17.83
2023-05-21T22:45:42.334Z,15.38
2023-05-21T22:48:09.836Z,13.75
2023-05-21T22:50:38.325Z,12.57
2023-05-21T22:53:05.837Z,12.75
2023-05-21T22:55:32.626Z,13.45
2023-05-21T22:58:00.395Z,32.83
2023-05-21T23:00:27.410Z,18.45
2023-05-21T23:02:54.840Z,16.02
2023-05-21T23:05:22.465Z,16.38
2023-05-21T23:07:49.408Z,19.75
2023-05-21T23:10:16.218Z,20.30
2023-05-21T23:12:43.053Z,19.33
2023-05-21T23:15:10.939Z,18.55
2023-05-21T23:17:38.652Z,17.38
2023-05-21T23:20:07.473Z,15.10
2023-05-21T23:22:35.487Z,14.30
2023-05-21T23:25:02.437Z,12.00
2023-05-21T23:27:29.361Z,17.13
2023-05-21T23:29:56.520Z,18.92
2023-05-21T23:32:23.656Z,20.23
2023-05-21T23:34:50.829Z,17.00
2023-05-21T23:37:17.778Z,10.88
2023-05-21T23:39:48.321Z,11.32
2023-05-21T23:42:18.590Z,7.90
2023-05-21T23:44:45.351Z,5.70
2023-05-21T23:47:12.253Z,5.43
2023-05-21T23:49:39.517Z,6.43
2023-05-21T23:52:06.769Z,5.13
2023-05-21T23:54:33.534Z,4.25
2023-05-21T23:57:02.312Z,5.25
2023-05-21T23:59:29.334Z,5.15
